createdAt,value
2022-09-06T00:01:42.039Z,6.80
2022-09-06T00:04:15.210Z,7.10
2022-09-06T00:06:45.242Z,6.97
2022-09-06T00:09:15.463Z,7.68
2022-09-06T00:12:03.245Z,7.10
2022-09-06T00:14:32.680Z,7.10
2022-09-06T00:17:02.443Z,7.20
2022-09-06T00:19:31.939Z,7.05
2022-09-06T00:22:02.486Z,7.40
2022-09-06T00:24:31.943Z,8.02
2022-09-06T00:27:03.052Z,7.10
2022-09-06T00:29:34.507Z,7.68
2022-09-06T00:32:04.301Z,7.72
2022-09-06T00:34:34.015Z,7.32
2022-09-06T00:37:05.259Z,7.85
2022-09-06T00:39:35.400Z,9.10
2022-09-06T00:42:10.543Z,9.52
2022-09-06T00:44:40.546Z,8.90
2022-09-06T00:47:10.832Z,8.77
2022-09-06T00:49:45.936Z,8.75
2022-09-06T00:52:20.284Z,9.15
2022-09-06T00:54:51.160Z,9.90
2022-09-06T00:57:22.301Z,9.43
2022-09-06T00:59:52.388Z,8.73
2022-09-06T01:02:24.204Z,9.48
2022-09-06T01:04:54.751Z,10.35
2022-09-06T01:07:34.456Z,10.82
2022-09-06T01:10:28.208Z,10.95
2022-09-06T01:13:11.843Z,11.13
2022-09-06T01:15:48.758Z,12.82
2022-09-06T01:18:34.350Z,11.65
2022-09-06T01:21:17.782Z,11.93
2022-09-06T01:24:15.488Z,13.27
2022-09-06T01:27:22.914Z,12.13
2022-09-06T01:29:58.702Z,12.35
2022-09-06T01:35:09.080Z,13.93
2022-09-06T01:37:43.527Z,12.40
2022-09-06T01:40:16.670Z,14.20
2022-09-06T01:42:48.819Z,12.70
2022-09-06T01:45:21.963Z,11.50
2022-09-06T01:48:02.151Z,11.40
2022-09-06T01:50:49.884Z,22.55
2022-09-06T01:53:35.122Z,12.98
2022-09-06T01:56:14.762Z,11.32
2022-09-06T01:59:19.599Z,11.65
2022-09-06T02:04:29.547Z,10.48
2022-09-06T02:07:03.537Z,12.32
2022-09-06T02:09:41.845Z,12.35
2022-09-06T02:12:22.961Z,14.75
2022-09-06T02:14:58.227Z,12.60
2022-09-06T02:17:35.019Z,12.85
2022-09-06T02:20:09.819Z,12.38
2022-09-06T02:22:43.802Z,11.93
2022-09-06T02:25:19.095Z,12.65
2022-09-06T02:27:56.653Z,13.00
2022-09-06T02:30:26.610Z,11.88
2022-09-06T02:33:13.376Z,12.13
2022-09-06T02:35:48.816Z,11.18
2022-09-06T02:38:21.263Z,11.93
2022-09-06T02:40:52.214Z,10.40
2022-09-06T02:43:27.923Z,10.75
2022-09-06T02:48:30.348Z,12.02
2022-09-06T02:51:13.313Z,10.73
2022-09-06T02:53:42.693Z,9.73
2022-09-06T02:56:12.078Z,10.30
2022-09-06T02:58:41.564Z,8.88
2022-09-06T03:01:10.898Z,10.00
2022-09-06T03:03:41.797Z,9.05
2022-09-06T03:06:11.135Z,8.00
2022-09-06T03:08:44.769Z,8.50
2022-09-06T03:11:16.882Z,8.85
2022-09-06T03:13:46.192Z,9.82
2022-09-06T03:16:27.113Z,9.43
2022-09-06T03:18:58.095Z,12.13
2022-09-06T03:21:27.745Z,8.27
2022-09-06T03:24:00.036Z,7.78
2022-09-06T03:26:31.123Z,8.27
2022-09-06T03:29:03.804Z,7.95
2022-09-06T03:31:39.553Z,8.57
2022-09-06T03:34:11.397Z,8.27
2022-09-06T03:36:43.011Z,7.10
2022-09-06T03:39:16.780Z,7.85
2022-09-06T03:41:59.265Z,7.55
2022-09-06T03:44:32.520Z,7.95
2022-09-06T03:47:02.004Z,8.00
2022-09-06T03:49:32.927Z,7.65
2022-09-06T03:52:02.241Z,7.57
2022-09-06T03:54:37.036Z,7.68
2022-09-06T03:57:14.746Z,8.13
2022-09-06T03:59:44.488Z,7.53
2022-09-06T04:02:16.910Z,8.73
2022-09-06T04:04:49.227Z,8.38
2022-09-06T04:07:18.548Z,7.95
2022-09-06T04:10:04.825Z,8.52
2022-09-06T04:12:35.642Z,8.80
2022-09-06T04:15:14.255Z,9.68
2022-09-06T04:17:53.827Z,7.72
2022-09-06T04:20:25.451Z,8.50
2022-09-06T04:22:55.593Z,7.45
2022-09-06T04:25:27.612Z,7.03
2022-09-06T04:27:59.348Z,8.00
2022-09-06T04:30:29.089Z,8.05
2022-09-06T04:33:06.350Z,8.10
2022-09-06T04:35:37.243Z,9.68
2022-09-06T04:38:07.662Z,8.77
2022-09-06T04:40:39.018Z,8.48
2022-09-06T04:43:29.695Z,8.95
2022-09-06T04:46:04.511Z,9.50
2022-09-06T04:48:35.949Z,8.63
2022-09-06T04:51:15.034Z,9.88
2022-09-06T04:53:44.488Z,9.30
2022-09-06T04:56:23.016Z,8.48
2022-09-06T04:58:57.254Z,8.63
2022-09-06T05:01:31.909Z,7.55
2022-09-06T05:04:04.195Z,8.40
2022-09-06T05:06:53.249Z,8.50
2022-09-06T05:09:27.103Z,8.52
2022-09-06T05:12:04.674Z,8.68
2022-09-06T05:15:01.617Z,8.30
2022-09-06T05:17:31.961Z,8.07
2022-09-06T05:20:06.078Z,7.97
2022-09-06T05:22:39.418Z,9.00
2022-09-06T05:25:13.429Z,8.00
2022-09-06T05:27:44.597Z,8.43
2022-09-06T05:30:16.981Z,7.55
2022-09-06T05:35:51.726Z,7.25
2022-09-06T05:38:35.742Z,7.65
2022-09-06T05:41:05.044Z,7.53
2022-09-06T05:43:42.952Z,6.90
2022-09-06T05:46:15.189Z,9.02
2022-09-06T05:48:44.576Z,7.85
2022-09-06T05:51:15.665Z,7.82
2022-09-06T05:53:47.924Z,8.20
2022-09-06T05:56:58.934Z,7.97
2022-09-06T05:59:31.441Z,10.07
2022-09-06T06:02:22.277Z,9.07
2022-09-06T06:05:50.466Z,9.32
2022-09-06T06:08:31.295Z,10.43
2022-09-06T06:11:05.402Z,12.13
2022-09-06T06:13:43.724Z,11.10
2022-09-06T06:16:23.989Z,10.43
2022-09-06T06:19:06.514Z,10.48
2022-09-06T06:21:44.058Z,12.13
2022-09-06T06:24:26.043Z,11.00
2022-09-06T06:27:17.988Z,10.30
2022-09-06T06:29:47.999Z,10.40
2022-09-06T06:32:20.848Z,11.38
2022-09-06T06:34:50.675Z,10.35
2022-09-06T06:39:50.610Z,9.35
2022-09-06T06:40:31.553Z,9.50
2022-09-06T06:43:02.734Z,10.65
2022-09-06T06:45:34.718Z,15.50
2022-09-06T06:48:15.704Z,9.98
2022-09-06T06:50:45.971Z,10.80
2022-09-06T06:53:17.991Z,10.73
2022-09-06T06:55:50.548Z,10.45
2022-09-06T06:58:25.683Z,10.40
2022-09-06T07:00:55.515Z,10.50
2022-09-06T07:03:29.422Z,9.80
2022-09-06T07:06:16.809Z,9.68
2022-09-06T07:08:52.203Z,9.70
2022-09-06T07:11:24.385Z,9.45
2022-09-06T07:14:04.707Z,9.05
2022-09-06T07:16:38.657Z,8.75
2022-09-06T07:22:28.415Z,8.88
2022-09-06T07:24:59.185Z,8.27
2022-09-06T07:27:46.603Z,8.98
2022-09-06T07:30:31.083Z,8.13
2022-09-06T07:33:03.869Z,8.57
2022-09-06T07:35:35.994Z,8.98
2022-09-06T07:38:07.527Z,8.25
2022-09-06T07:40:37.140Z,8.82
2022-09-06T07:43:06.706Z,8.15
2022-09-06T07:45:44.366Z,7.47
2022-09-06T07:48:13.738Z,7.55
2022-09-06T07:50:46.222Z,8.30
2022-09-06T07:53:23.010Z,9.48
2022-09-06T07:55:58.640Z,7.78
2022-09-06T07:58:28.792Z,7.10
2022-09-06T08:01:27.079Z,7.28
2022-09-06T08:03:56.721Z,7.53
2022-09-06T08:06:27.109Z,7.43
2022-09-06T08:11:27.379Z,9.43
2022-09-06T08:13:58.739Z,10.15
2022-09-06T08:16:31.787Z,12.43
2022-09-06T08:19:03.466Z,12.63
2022-09-06T08:21:54.219Z,12.75
2022-09-06T08:24:24.774Z,12.05
2022-09-06T08:26:57.133Z,11.30
2022-09-06T08:29:26.534Z,10.63
2022-09-06T08:31:57.753Z,10.85
2022-09-06T08:34:27.305Z,11.18
2022-09-06T08:36:57.829Z,10.93
2022-09-06T08:39:27.219Z,11.02
2022-09-06T08:42:02.286Z,12.15
2022-09-06T08:47:28.361Z,12.27
2022-09-06T08:50:07.635Z,12.55
2022-09-06T08:53:18.411Z,12.85
2022-09-06T08:56:06.909Z,11.43
2022-09-06T08:58:51.614Z,10.05
2022-09-06T09:01:30.502Z,9.63
2022-09-06T09:04:14.337Z,9.85
2022-09-06T09:07:26.839Z,10.48
2022-09-06T09:09:58.295Z,11.60
2022-09-06T09:12:29.906Z,10.98
2022-09-06T09:33:37.841Z,11.30
2022-09-06T09:36:22.906Z,10.77
2022-09-06T09:39:03.800Z,9.98
2022-09-06T09:41:56.841Z,10.30
2022-09-06T09:44:48.306Z,11.32
2022-09-06T09:47:30.665Z,10.68
2022-09-06T09:50:02.800Z,11.23
2022-09-06T09:52:41.327Z,12.02
2022-09-06T09:55:33.614Z,11.07
2022-09-06T09:59:02.125Z,9.88
2022-09-06T10:01:34.248Z,10.65
2022-09-06T10:07:32.474Z,12.30
2022-09-06T10:10:07.934Z,11.98
2022-09-06T10:15:47.693Z,13.35
2022-09-06T10:18:34.099Z,12.68
2022-09-06T10:21:20.256Z,23.13
2022-09-06T10:27:01.047Z,17.67
2022-09-06T10:29:41.314Z,14.65
2022-09-06T10:32:23.504Z,18.83
2022-09-06T10:35:08.232Z,17.25
2022-09-06T10:37:50.096Z,15.60
2022-09-06T10:40:31.490Z,19.90
2022-09-06T10:43:02.732Z,15.48
2022-09-06T10:45:50.887Z,8.45
2022-09-06T10:48:26.061Z,9.93
2022-09-06T10:51:00.832Z,9.68
2022-09-06T10:53:43.344Z,12.15
2022-09-06T10:56:22.101Z,9.60
2022-09-06T11:02:00.197Z,9.98
2022-09-06T11:07:31.576Z,9.88
2022-09-06T11:10:09.166Z,18.15
2022-09-06T11:12:48.187Z,10.02
2022-09-06T11:15:21.890Z,9.40
2022-09-06T11:18:07.701Z,10.00
2022-09-06T11:20:57.170Z,13.07
2022-09-06T11:23:53.047Z,11.43
2022-09-06T11:26:42.053Z,10.20
2022-09-06T11:29:20.928Z,11.85
2022-09-06T11:34:55.874Z,12.13
2022-09-06T11:37:28.680Z,11.13
2022-09-06T11:40:31.853Z,9.73
2022-09-06T11:43:19.539Z,9.02
2022-09-06T11:45:51.906Z,11.18
2022-09-06T11:49:04.195Z,8.80
2022-09-06T11:51:41.405Z,8.43
2022-09-06T11:54:29.896Z,8.48
2022-09-06T11:57:03.225Z,8.18
2022-09-06T11:59:46.122Z,8.52
2022-09-06T12:02:38.337Z,8.48
2022-09-06T12:05:23.080Z,8.98
2022-09-06T12:08:15.420Z,8.25
2022-09-06T12:10:58.701Z,8.73
2022-09-06T12:14:03.695Z,8.70
2022-09-06T12:17:24.189Z,8.85
2022-09-06T12:19:56.918Z,9.25
2022-09-06T12:23:05.188Z,8.82
2022-09-06T12:25:59.576Z,9.75
2022-09-06T12:28:37.582Z,9.93
2022-09-06T12:31:29.416Z,9.80
2022-09-06T12:34:00.399Z,13.65
2022-09-06T12:36:33.592Z,10.98
2022-09-06T12:39:05.048Z,10.60
2022-09-06T12:41:43.327Z,10.38
2022-09-06T12:44:15.097Z,10.00
2022-09-06T12:46:53.765Z,11.60
2022-09-06T12:49:24.647Z,11.15
2022-09-06T12:52:09.486Z,11.40
2022-09-06T12:54:47.282Z,11.70
2022-09-06T12:57:21.480Z,11.05
2022-09-06T12:59:55.866Z,9.80
2022-09-06T13:02:36.766Z,8.73
2022-09-06T13:05:11.654Z,10.43
2022-09-06T13:07:45.216Z,9.10
2022-09-06T13:10:24.345Z,9.05
2022-09-06T13:12:54.878Z,11.40
2022-09-06T13:15:31.569Z,10.38
2022-09-06T13:18:23.248Z,9.50
2022-09-06T13:21:03.664Z,10.88
2022-09-06T13:23:44.584Z,10.55
2022-09-06T13:26:13.926Z,10.68
2022-09-06T13:28:43.233Z,10.05
2022-09-06T13:31:15.619Z,9.85
2022-09-06T13:33:45.653Z,9.95
2022-09-06T13:36:25.722Z,11.20
2022-09-06T13:39:05.038Z,9.73
2022-09-06T13:41:41.534Z,9.23
2022-09-06T13:44:21.928Z,11.20
2022-09-06T13:46:55.590Z,9.85
2022-09-06T13:49:46.895Z,10.57
2022-09-06T13:52:16.873Z,9.18
2022-09-06T13:54:49.967Z,10.38
2022-09-06T13:57:24.186Z,9.48
2022-09-06T13:59:56.248Z,9.50
2022-09-06T14:02:25.512Z,9.45
2022-09-06T14:04:58.220Z,10.27
2022-09-06T14:07:36.703Z,10.07
2022-09-06T14:10:14.920Z,10.38
2022-09-06T14:12:46.441Z,9.27
2022-09-06T14:15:15.913Z,11.05
2022-09-06T14:17:45.618Z,10.02
2022-09-06T14:20:17.660Z,10.27
2022-09-06T14:22:47.167Z,10.52
2022-09-06T14:25:18.369Z,10.00
2022-09-06T14:27:48.978Z,9.95
2022-09-06T14:30:18.428Z,10.20
2022-09-06T14:32:47.813Z,10.20
2022-09-06T14:35:17.123Z,9.68
2022-09-06T14:38:00.285Z,10.60
2022-09-06T14:40:31.025Z,10.07
2022-09-06T14:43:00.261Z,11.40
2022-09-06T14:45:29.457Z,11.65
2022-09-06T14:47:58.775Z,11.25
2022-09-06T14:50:28.380Z,11.88
2022-09-06T14:53:03.214Z,11.18
2022-09-06T14:55:34.905Z,12.57
2022-09-06T14:58:04.252Z,12.32
2022-09-06T15:00:33.837Z,11.70
2022-09-06T15:03:03.236Z,12.05
2022-09-06T15:05:39.413Z,11.50
2022-09-06T15:08:11.436Z,11.85
2022-09-06T15:10:43.204Z,15.23
2022-09-06T15:13:13.890Z,13.93
2022-09-06T15:15:43.468Z,18.52
2022-09-06T15:18:14.950Z,30.65
2022-09-06T15:20:45.342Z,31.55
2022-09-06T15:23:24.959Z,36.78
2022-09-06T15:26:09.524Z,35.72
2022-09-06T15:28:42.587Z,32.25
2022-09-06T15:31:13.178Z,29.17
2022-09-06T15:33:44.813Z,29.98
2022-09-06T15:36:17.367Z,32.22
2022-09-06T15:38:49.191Z,35.03
2022-09-06T15:41:22.700Z,41.65
2022-09-06T15:43:54.797Z,34.78
2022-09-06T15:46:47.079Z,32.83
2022-09-06T15:49:23.275Z,34.97
2022-09-06T15:52:01.403Z,32.38
2022-09-06T15:57:19.664Z,30.40
2022-09-06T15:59:48.849Z,29.55
2022-09-06T16:02:18.271Z,31.85
2022-09-06T16:04:48.231Z,33.17
2022-09-06T16:07:17.581Z,30.60
2022-09-06T16:09:47.127Z,28.20
2022-09-06T16:12:16.354Z,28.80
2022-09-06T16:14:47.047Z,28.83
2022-09-06T16:17:16.264Z,29.73
2022-09-06T16:19:46.076Z,36.08
2022-09-06T16:22:15.376Z,54.38
2022-09-06T16:24:44.550Z,54.22
2022-09-06T16:27:13.776Z,60.65
2022-09-06T16:29:42.971Z,56.92
2022-09-06T16:32:13.834Z,59.75
2022-09-06T16:34:43.066Z,55.80
2022-09-06T16:37:12.224Z,56.35
2022-09-06T16:39:41.464Z,59.17
2022-09-06T16:42:11.611Z,56.92
2022-09-06T16:44:40.878Z,51.60
2022-09-06T16:47:13.552Z,42.15
2022-09-06T16:49:46.764Z,48.35
2022-09-06T16:52:15.968Z,24.38
2022-09-06T16:54:45.192Z,30.42
2022-09-06T16:57:14.500Z,19.60
2022-09-06T16:59:43.754Z,16.73
2022-09-06T17:02:13.183Z,14.32
2022-09-06T17:04:42.531Z,14.13
2022-09-06T17:07:13.286Z,12.48
2022-09-06T17:09:42.467Z,10.63
2022-09-06T17:12:11.657Z,9.43
2022-09-06T17:14:40.876Z,9.57
2022-09-06T17:17:10.495Z,9.13
2022-09-06T17:19:41.715Z,8.65
2022-09-06T17:22:13.299Z,8.48
2022-09-06T17:24:43.156Z,8.43
2022-09-06T17:27:12.618Z,8.32
2022-09-06T17:29:41.849Z,9.38
2022-09-06T17:32:11.925Z,9.77
2022-09-06T17:34:41.959Z,9.63
2022-09-06T17:37:13.060Z,9.23
2022-09-06T17:39:43.182Z,8.63
2022-09-06T17:42:12.906Z,9.10
2022-09-06T17:44:42.545Z,9.25
2022-09-06T17:47:13.638Z,9.63
2022-09-06T17:49:43.717Z,8.75
2022-09-06T17:52:15.277Z,9.68
2022-09-06T17:54:47.447Z,9.18
2022-09-06T17:57:16.685Z,9.27
2022-09-06T17:59:45.977Z,9.15
2022-09-06T18:02:15.213Z,9.55
2022-09-06T18:04:45.468Z,8.80
2022-09-06T18:07:16.208Z,9.00
2022-09-06T18:09:45.494Z,8.82
2022-09-06T18:12:14.769Z,8.00
2022-09-06T18:14:45.003Z,8.18
2022-09-06T18:17:14.183Z,9.35
2022-09-06T18:19:45.198Z,8.80
2022-09-06T18:22:15.878Z,8.40
2022-09-06T18:24:45.137Z,8.60
2022-09-06T18:27:14.356Z,8.05
2022-09-06T18:29:43.544Z,8.07
2022-09-06T18:32:13.414Z,8.23
2022-09-06T18:34:42.645Z,8.50
2022-09-06T18:37:12.275Z,8.00
2022-09-06T18:39:43.627Z,8.27
2022-09-06T18:42:12.983Z,8.40
2022-09-06T18:44:42.671Z,9.45
2022-09-06T18:47:14.310Z,8.82
2022-09-06T18:49:44.277Z,8.18
2022-09-06T18:52:13.759Z,8.27
2022-09-06T18:54:45.344Z,8.43
2022-09-06T18:57:16.240Z,7.60
2022-09-06T18:59:46.304Z,8.50
2022-09-06T19:02:15.597Z,8.13
2022-09-06T19:04:44.827Z,7.70
2022-09-06T19:07:14.047Z,8.30
2022-09-06T19:09:44.990Z,7.82
2022-09-06T19:12:14.190Z,7.85
2022-09-06T19:14:43.424Z,8.40
2022-09-06T19:17:12.630Z,11.32
2022-09-06T19:19:41.745Z,8.73
2022-09-06T19:22:10.983Z,11.15
2022-09-06T19:24:40.623Z,12.25
2022-09-06T19:27:12.271Z,15.90
2022-09-06T19:29:41.493Z,17.58
2022-09-06T19:32:10.705Z,30.80
2022-09-06T19:34:39.948Z,40.70
2022-09-06T19:37:09.238Z,34.53
2022-09-06T19:39:38.526Z,36.20
2022-09-06T19:42:08.383Z,37.58
2022-09-06T19:44:39.116Z,42.10
2022-09-06T19:47:08.594Z,40.55
2022-09-06T19:49:37.852Z,46.28
2022-09-06T19:52:10.007Z,39.58
2022-09-06T19:54:39.329Z,31.70
2022-09-06T19:57:08.668Z,44.08
2022-09-06T19:59:39.827Z,42.58
2022-09-06T20:02:09.142Z,41.25
2022-09-06T20:04:38.371Z,36.33
2022-09-06T20:07:07.724Z,25.00
2022-09-06T20:09:36.975Z,32.10
2022-09-06T20:12:06.418Z,31.80
2022-09-06T20:14:35.695Z,29.98
2022-09-06T20:17:31.675Z,26.23
2022-09-06T20:19:55.625Z,17.98
2022-09-06T20:22:26.519Z,19.08
2022-09-06T20:24:55.740Z,20.65
2022-09-06T20:27:25.050Z,19.55
2022-09-06T20:29:54.304Z,21.45
2022-09-06T20:32:24.988Z,21.55
2022-09-06T20:34:54.234Z,25.63
2022-09-06T20:37:23.478Z,26.33
2022-09-06T20:39:52.931Z,24.58
2022-09-06T20:42:22.140Z,22.92
2022-09-06T20:44:54.394Z,23.52
2022-09-06T20:47:25.129Z,22.65
2022-09-06T20:49:57.074Z,21.02
2022-09-06T20:52:26.611Z,21.70
2022-09-06T20:54:55.915Z,21.83
2022-09-06T20:57:25.176Z,20.52
2022-09-06T20:59:55.135Z,20.92
2022-09-06T21:02:25.900Z,21.83
2022-09-06T21:04:55.206Z,21.27
2022-09-06T21:07:24.481Z,21.20
2022-09-06T21:09:55.925Z,21.77
2022-09-06T21:12:25.111Z,20.50
2022-09-06T21:14:55.347Z,22.33
2022-09-06T21:17:26.071Z,21.63
2022-09-06T21:19:55.322Z,21.83
2022-09-06T21:22:24.516Z,21.58
2022-09-06T21:24:53.715Z,23.90
2022-09-06T21:27:22.961Z,25.63
2022-09-06T21:29:52.179Z,29.20
2022-09-06T21:32:21.415Z,29.40
2022-09-06T21:34:52.166Z,29.98
2022-09-06T21:37:21.679Z,28.88
2022-09-06T21:39:50.929Z,27.58
2022-09-06T21:42:20.235Z,29.60
2022-09-06T21:44:49.406Z,30.75
2022-09-06T21:47:18.672Z,30.80
2022-09-06T21:49:48.003Z,30.42
2022-09-06T21:52:19.069Z,30.17
2022-09-06T21:54:48.325Z,31.45
2022-09-06T21:57:17.621Z,30.90
2022-09-06T21:59:46.879Z,27.42
2022-09-06T22:02:16.425Z,26.42
2022-09-06T22:04:45.709Z,26.40
2022-09-06T22:07:15.024Z,26.20
2022-09-06T22:09:45.797Z,28.95
2022-09-06T22:12:15.029Z,28.25
2022-09-06T22:14:44.321Z,26.52
2022-09-06T22:17:13.539Z,25.42
2022-09-06T22:19:42.760Z,25.58
2022-09-06T22:22:11.997Z,25.95
2022-09-06T22:24:41.322Z,26.15
2022-09-06T22:27:12.063Z,25.83
2022-09-06T22:29:41.333Z,26.10
2022-09-06T22:32:11.001Z,26.67
2022-09-06T22:34:40.734Z,27.35
2022-09-06T22:37:10.023Z,26.42
2022-09-06T22:39:39.321Z,26.05
2022-09-06T22:42:08.759Z,31.45
2022-09-06T22:44:39.582Z,27.92
2022-09-06T22:47:08.949Z,30.02
2022-09-06T22:49:38.232Z,30.58
2022-09-06T22:52:07.505Z,29.17
2022-09-06T22:54:36.840Z,24.33
2022-09-06T22:57:06.248Z,33.20
2022-09-06T22:59:37.777Z,32.03
2022-09-06T23:02:08.543Z,33.75
2022-09-06T23:04:37.840Z,33.10
2022-09-06T23:07:07.454Z,31.88
2022-09-06T23:09:36.736Z,33.67
2022-09-06T23:12:06.090Z,24.65
2022-09-06T23:14:35.370Z,23.50
2022-09-06T23:17:04.678Z,22.55
2022-09-06T23:19:35.493Z,22.05
2022-09-06T23:22:04.792Z,25.60
2022-09-06T23:24:34.177Z,28.55
2022-09-06T23:27:05.219Z,24.63
2022-09-06T23:29:35.576Z,22.60
2022-09-06T23:32:05.147Z,23.10
2022-09-06T23:34:36.104Z,25.45
2022-09-06T23:37:05.653Z,26.35
2022-09-06T23:39:35.170Z,28.60
2022-09-06T23:42:04.501Z,32.15
2022-09-06T23:44:33.797Z,30.77
2022-09-06T23:47:03.045Z,27.30
2022-09-06T23:49:32.348Z,25.08
2022-09-06T23:52:03.424Z,26.77
2022-09-06T23:54:32.747Z,25.05
2022-09-06T23:57:02.108Z,26.35
2022-09-06T23:59:31.423Z,25.67
